• Join FlightAware (Why Join?)
  • Login
  • US Flag 
06:34AM EDT


 

Airport Tracker/Info


-or-


 

Live Flight TrackerFlight Track Log ✈ N6900B ✈ 17-Jun-2013 ✈ P20 - KTOA

Flight Track Log - Related Links

Times and Time Zones

All times are in EDT time to prevent confusion due to time zone crossing. See the N6900B flight status page for this flight to view local times or setup timezone preferences in your user account.

Time Position Orientation Groundspeed Altitude Reporting Facility
EDT Latitude Longitude Course Direction KTS MPH feet Rate Location/Type
12:26PM 34.1014 -114.6947 263° West 116 133 7,400  Level Los Angeles Center
12:27PM 34.0967 -114.7319 261° West 115 132 7,900 240 Climbing Los Angeles Center
12:28PM 34.0897 -114.7767 259° West 125 144 7,900  Level Los Angeles Center
12:29PM 34.0817 -114.8294 260° West 143 165 7,900  Level Los Angeles Center
12:30PM 34.0756 -114.8836 262° West 153 176 7,900  Level Los Angeles Center
12:32PM 34.1016 -114.5676 263° West  Level FlightAware Approximate
12:32PM 34.0672 -114.9492 261° West 160 184 7,900  Level Los Angeles Center
12:33PM 34.0600 -115.0047 261° West 164 189 7,900  Level Los Angeles Center
12:34PM 34.0542 -115.0619 263° West 168 193 7,900  Level Los Angeles Center
12:35PM 34.0475 -115.1186 262° West 170 196 7,900  Level Los Angeles Center
12:36PM 34.0400 -115.1753 261° West 171 197 7,900  Level Los Angeles Center
12:37PM 34.0308 -115.2406 260° West 168 193 7,900  Level Los Angeles Center
12:38PM 34.0236 -115.2964 261° West 168 193 7,900  Level Los Angeles Center
12:39PM 34.0169 -115.3511 262° West 167 192 7,900  Level Los Angeles Center
12:40PM 34.0094 -115.4053 261° West 166 191 7,900  Level Los Angeles Center
12:41PM 34.0028 -115.4583 261° West 164 189 7,900  Level Los Angeles Center
12:42PM 33.9961 -115.5114 261° West 162 186 7,900  Level Los Angeles Center
12:43PM 33.9869 -115.5761 260° West 163 188 7,900  Level Los Angeles Center
12:44PM 33.9786 -115.6314 260° West 165 190 7,900  Level Los Angeles Center
12:45PM 33.9714 -115.6856 261° West 165 190 8,000 300 Climbing Los Angeles Center
12:46PM 33.9653 -115.7381 262° West 163 188 8,600 480 Climbing Los Angeles Center
12:47PM 33.9614 -115.7781 263° West 159 183 9,100 600 Climbing Los Angeles Center
12:48PM 33.9514 -115.8397 259° West 147 169 9,900 360 Climbing Los Angeles Center
12:49PM 33.9450 -115.8844 260° West 140 161 9,900  Level Los Angeles Center
12:50PM 33.9378 -115.9369 261° West 146 168 9,900  Level Los Angeles Center
12:51PM 33.9300 -115.9931 261° West 160 184 9,900  Level Los Angeles Center
12:52PM 33.9242 -116.0450 262° West 159 183 9,900  Level Los Angeles Center
12:53PM 33.9172 -116.0975 261° West 159 183 9,900  Level Los Angeles Center
12:54PM 33.9069 -116.1708 260° West 159 183 9,900  Level Los Angeles Center
12:56PM 33.9056 -116.2247 268° West 160 184 9,900  Level Los Angeles Center
12:57PM 33.9131 -116.2778 280° West 160 184 9,900  Level Los Angeles Center
12:58PM 33.9172 -116.3306 275° West 160 184 9,900  Level Los Angeles Center
12:59PM 33.9214 -116.3825 276° West 158 182 9,900  Level Los Angeles Center
01:00PM 33.9272 -116.4478 276° West 162 186 9,900  Level Los Angeles Center
01:01PM 33.9314 -116.5019 275° West 163 188 9,900 60 Level Los Angeles Center
01:02PM 33.9356 -116.5553 275° West 162 186 10,100  Climbing Los Angeles Center
01:03PM 33.9403 -116.6089 276° West 162 186 10,000 -60 Descending Los Angeles Center
01:04PM 33.9431 -116.6628 274° West 162 186 10,000  Level Los Angeles Center
01:05PM 33.9483 -116.7258 276° West 163 188 10,100  Climbing Los Angeles Center
01:06PM 33.9486 -116.7850 270° West 168 193 10,000 -60 Descending Los Angeles Center
01:07PM 33.9458 -116.8419 267° West 170 196 10,000  Level Los Angeles Center
01:08PM 33.9439 -116.8981 268° West 170 196 10,000  Level Los Angeles Center
01:09PM 33.9333 -116.9667 260° West 172 198 10,100  Climbing Southern California TRACON
01:10PM 33.9333 -117.0167 270° West 170 196 10,100  Level Southern California TRACON
01:11PM 33.9333 -117.0833 270° West 171 197 10,100  Level Southern California TRACON
01:12PM 33.9333 -117.1500 270° West 170 196 10,100  Level Southern California TRACON
01:13PM 33.9000 -117.1667 203° Southwest 176 203 10,100  Level Southern California TRACON
01:14PM 33.8667 -117.2000 220° Southwest 173 199 10,100  Level Southern California TRACON
01:15PM 33.8333 -117.2500 231° Southwest 169 194 10,100 -60 Level Southern California TRACON
01:16PM 33.8167 -117.3000 248° West 169 194 10,000 -300 Descending Southern California TRACON
01:17PM 33.8000 -117.3500 248° West 182 209 9,600 -540 Descending Southern California TRACON
01:18PM 33.7667 -117.4000 231° Southwest 191 220 9,000 -540 Descending Southern California TRACON
01:19PM 33.7333 -117.4500 231° Southwest 190 219 8,500 -480 Descending Southern California TRACON
01:20PM 33.7000 -117.5000 231° Southwest 189 217 8,100 -240 Descending Southern California TRACON
01:21PM 33.6667 -117.5500 231° Southwest 172 198 8,100  Level Southern California TRACON
01:21PM 33.6567 -117.5578 213° Southwest 180 207 8,100  Level Los Angeles Center
01:22PM 33.6272 -117.6003 230° Southwest 170 196 8,100 -240 Level Los Angeles Center
01:23PM 33.6067 -117.6503 244° Southwest 174 200 7,700 -540 Descending Los Angeles Center
01:24PM 33.6167 -117.7000 284° West 185 213 7,200 -720 Descending Southern California TRACON
01:25PM 33.6167 -117.7500 270° West 185 213 6,500 -600 Descending Southern California TRACON
01:26PM 33.6333 -117.8167 287° West 176 203 6,100 -240 Descending Southern California TRACON
01:27PM 33.6333 -117.8667 270° West 157 181 6,100 -120 Level Southern California TRACON
01:28PM 33.6333 -117.9167 270° West 161 185 5,900 -480 Descending Southern California TRACON
01:29PM 33.6167 -117.9667 248° West 180 207 5,200 -720 Descending Southern California TRACON
01:30PM 33.6222 -117.9953 283° West 174 200 4,800 -780 Descending Los Angeles Center
01:30PM 33.6333 -118.0333 289° West 163 188 4,400 -660 Descending Southern California TRACON
01:31PM 33.6500 -118.0667 301° West 156 180 3,900 -540 Descending Southern California TRACON
01:32PM 33.6667 -118.1167 292° West 148 170 3,400 -480 Descending Southern California TRACON
01:33PM 33.6803 -118.1314 318° Northwest 151 174 3,200 -600 Descending Los Angeles Center
01:34PM 33.6989 -118.1778 296° West 139 160 2,400 -540 Descending Los Angeles Center
01:35PM 33.7206 -118.2131 306° West 134 154 2,200 -120 Descending Los Angeles Center
01:36PM 33.7394 -118.2433 307° West 120 138 2,200 -240 Level Los Angeles Center
01:37PM 33.7544 -118.2644 311° West 92 106 1,800 -480 Descending Los Angeles Center
01:38PM 33.7706 -118.2878 310° West 90 104 1,300 -540 Descending Los Angeles Center
01:39PM 33.7892 -118.3169 308° West 93 107 700 -600 Descending Los Angeles Center
01:40PM 33.8050 -118.3408 309° West 94 108 100 -600 Descending Los Angeles Center
01:42PM 33.8034 -118.3396 148° Southeast  Level Estimated